Time;durP1;ratioP1;P1;durP2;ratioP2;P2;SDS_P1;SDS_P2;PMS_P1;PMS_P2;Temp;Humidity;BMP_temperature;BMP_pressure;BME280_temperature;BME280_humidity;BME280_pressure;Samples;Min_cycle;Max_cycle;Signal;HPM_P1;HPM_P2
2021/09/16 00:02:03;;;;;;;;;8.67;8.33;;;;;17.79;78.23;101166.97;5061835;28;45409;-76
2021/09/16 00:04:29;;;;;;;;;8.67;7.67;;;;;17.72;77.79;101168.84;5061820;28;45365;-76
2021/09/16 00:06:54;;;;;;;;;9.00;9.00;;;;;17.63;78.55;101163.69;5061759;28;45318;-76
2021/09/16 00:09:20;;;;;;;;;13.33;13.33;;;;;17.62;78.44;101163.91;5061769;28;45409;-76
2021/09/16 00:11:45;;;;;;;;;10.33;9.00;;;;;17.58;78.48;101162.69;5061557;28;45437;-76
2021/09/16 00:14:11;;;;;;;;;12.00;12.00;;;;;17.56;78.30;101162.06;5061046;28;46155;-76
2021/09/16 00:16:36;;;;;;;;;13.00;12.00;;;;;17.50;78.77;101161.03;5061621;28;45359;-76
2021/09/16 00:19:02;;;;;;;;;14.00;14.00;;;;;17.41;78.80;101155.06;5061749;28;45257;-76
2021/09/16 00:21:28;;;;;;;;;9.33;9.33;;;;;17.39;78.72;101157.16;5060007;28;46269;-76
2021/09/16 00:23:53;;;;;;;;;13.00;12.00;;;;;17.36;78.81;101154.91;5061348;28;45280;-76
2021/09/16 00:26:18;;;;;;;;;10.67;9.67;;;;;17.29;78.82;101144.97;5061335;28;45279;-76
2021/09/16 00:28:44;;;;;;;;;11.33;11.00;;;;;17.25;79.06;101141.06;5060949;28;45402;-76
2021/09/16 00:31:09;;;;;;;;;10.33;9.67;;;;;17.23;78.81;101140.44;5075290;28;47414;-76
2021/09/16 00:33:35;;;;;;;;;8.67;8.67;;;;;17.22;79.06;101143.34;5080288;28;48135;-76
2021/09/16 00:36:01;;;;;;;;;10.67;10.00;;;;;17.20;79.31;101145.38;5081567;28;45294;-76
2021/09/16 00:38:26;;;;;;;;;10.67;10.67;;;;;17.17;79.12;101146.63;5081634;28;45450;-76
2021/09/16 00:40:52;;;;;;;;;15.00;10.00;;;;;17.19;79.56;101147.28;5081282;28;45141;-76
2021/09/16 00:43:17;;;;;;;;;10.67;10.67;;;;;17.19;79.37;101154.50;5067505;28;45510;-76
2021/09/16 00:45:43;;;;;;;;;11.33;11.33;;;;;17.11;79.41;101155.53;5061106;28;45357;-76
2021/09/16 00:48:08;;;;;;;;;12.33;11.67;;;;;17.05;78.72;101157.16;5061380;28;45329;-77
2021/09/16 00:50:36;;;;;;;;;10.00;10.00;;;;;17.01;79.26;101164.81;5061047;28;45336;-76
2021/09/16 00:53:01;;;;;;;;;12.00;12.00;;;;;16.95;79.44;101160.28;5060646;28;46035;-76
2021/09/16 00:55:27;;;;;;;;;12.00;12.00;;;;;16.94;79.76;101155.09;5059486;28;45327;-76
2021/09/16 00:57:55;;;;;;;;;11.00;11.00;;;;;16.92;79.71;101158.81;5060675;28;45245;-76
2021/09/16 01:00:22;;;;;;;;;12.33;11.00;;;;;16.86;79.16;101158.81;5060870;28;45216;-76
2021/09/16 01:02:48;;;;;;;;;10.33;9.67;;;;;16.84;79.55;101163.56;5060776;28;45959;-76
2021/09/16 01:05:14;;;;;;;;;13.00;12.00;;;;;16.76;79.39;101169.97;5060739;28;45428;-76
2021/09/16 01:07:40;;;;;;;;;11.67;11.67;;;;;16.75;80.09;101173.66;5060851;28;45284;-76
2021/09/16 01:10:08;;;;;;;;;14.00;11.33;;;;;16.73;79.84;101176.56;5059232;28;46852;-76
2021/09/16 01:12:33;;;;;;;;;10.33;10.33;;;;;16.68;80.00;101179.03;5060351;28;46260;-76
2021/09/16 01:15:00;;;;;;;;;12.00;12.00;;;;;16.68;80.23;101178.22;5060603;28;45271;-77
2021/09/16 01:17:25;;;;;;;;;18.00;14.67;;;;;16.68;79.71;101179.03;5060859;28;45247;-76
2021/09/16 01:19:50;;;;;;;;;9.33;9.33;;;;;16.68;80.06;101178.22;5060550;28;45285;-77
2021/09/16 01:22:21;;;;;;;;;11.33;11.33;;;;;16.68;80.12;101178.22;5059192;28;48242;-76
2021/09/16 01:24:47;;;;;;;;;10.33;10.33;;;;;16.65;80.15;101174.09;5060662;28;45383;-77
2021/09/16 01:27:13;;;;;;;;;14.33;13.00;;;;;16.65;80.13;101179.44;5059874;28;45458;-77
2021/09/16 01:29:38;;;;;;;;;12.00;12.00;;;;;16.63;79.75;101178.81;5060187;28;45208;-76
2021/09/16 01:32:06;;;;;;;;;11.00;11.00;;;;;16.61;79.87;101188.94;5060319;28;45292;-76
2021/09/16 01:34:31;;;;;;;;;10.00;10.00;;;;;16.57;79.93;101177.78;5060399;28;45201;-76
2021/09/16 01:36:57;;;;;;;;;14.00;12.00;;;;;16.60;80.11;101193.47;5060096;28;45207;-76
2021/09/16 01:39:22;;;;;;;;;12.67;12.67;;;;;16.60;79.71;101198.00;5060302;28;45497;-77
2021/09/16 01:41:48;;;;;;;;;12.00;11.67;;;;;16.60;80.22;101201.53;5059762;28;46439;-76
2021/09/16 01:44:14;;;;;;;;;10.33;10.33;;;;;16.63;79.89;101205.66;5060278;28;45346;-76
2021/09/16 01:46:39;;;;;;;;;10.33;10.00;;;;;16.56;79.43;101196.75;5058941;28;45381;-76
2021/09/16 01:49:05;;;;;;;;;10.00;10.00;;;;;16.54;80.35;101207.69;5059930;28;45390;-76
2021/09/16 01:51:32;;;;;;;;;14.67;14.33;;;;;16.57;79.88;101217.19;5058671;28;47115;-76
2021/09/16 01:53:58;;;;;;;;;11.33;9.33;;;;;16.55;80.00;101209.34;5060252;28;45302;-77
2021/09/16 01:56:23;;;;;;;;;10.67;9.67;;;;;16.59;80.22;101212.47;5058695;28;45340;-76
2021/09/16 01:58:49;;;;;;;;;11.67;10.33;;;;;16.60;79.97;101208.72;5058058;28;46757;-76
2021/09/16 02:01:14;;;;;;;;;11.33;11.33;;;;;16.66;80.54;101221.34;5058572;28;48206;-76
2021/09/16 02:03:39;;;;;;;;;12.67;12.67;;;;;16.62;80.42;101207.53;5060148;28;45297;-77
2021/09/16 02:06:05;;;;;;;;;12.67;12.00;;;;;16.61;80.50;101213.91;5059452;28;45855;-77
2021/09/16 02:08:30;;;;;;;;;18.00;17.00;;;;;16.69;80.73;101217.41;5059833;28;45233;-76
2021/09/16 02:10:56;;;;;;;;;15.33;14.33;;;;;16.71;80.52;101215.38;5059640;28;45235;-77
2021/09/16 02:13:21;;;;;;;;;14.00;13.00;;;;;16.73;80.34;101216.81;5057824;28;45521;-77
2021/09/16 02:15:46;;;;;;;;;15.33;12.33;;;;;16.77;80.64;101207.31;5060055;28;45237;-76
2021/09/16 02:18:12;;;;;;;;;14.33;14.00;;;;;16.82;80.36;101222.81;5059754;28;45227;-76
2021/09/16 02:20:37;;;;;;;;;17.00;13.00;;;;;16.89;80.42;101226.34;5059680;28;45230;-76
2021/09/16 02:23:03;;;;;;;;;16.00;16.00;;;;;16.92;80.87;101225.09;5059605;28;45345;-76
2021/09/16 02:25:28;;;;;;;;;15.33;13.00;;;;;16.94;80.68;101225.72;5059650;28;45565;-76
2021/09/16 02:27:54;;;;;;;;;14.00;13.33;;;;;16.99;80.53;101230.47;5059103;28;45276;-77
2021/09/16 02:30:19;;;;;;;;;12.67;12.67;;;;;17.04;80.54;101236.88;5066603;28;47403;-76
2021/09/16 02:32:45;;;;;;;;;12.67;12.67;;;;;17.01;80.12;101231.94;5079810;28;45307;-76
2021/09/16 02:35:12;;;;;;;;;15.00;14.67;;;;;17.03;80.23;101239.78;5079774;28;45243;-77
2021/09/16 02:37:38;;;;;;;;;13.67;13.67;;;;;16.97;80.37;101228.00;5079576;28;45421;-77
2021/09/16 02:40:05;;;;;;;;;12.00;12.00;;;;;17.02;80.86;101236.28;5079404;28;45379;-76
2021/09/16 02:42:31;;;;;;;;;12.00;11.67;;;;;17.04;80.12;101236.06;5077263;28;45209;-76
2021/09/16 02:44:56;;;;;;;;;15.00;14.33;;;;;17.01;79.99;101233.78;5059414;28;45229;-77
2021/09/16 02:47:21;;;;;;;;;14.67;12.00;;;;;16.97;80.05;101232.56;5057978;28;47182;-77
2021/09/16 02:49:47;;;;;;;;;13.00;12.00;;;;;16.97;80.57;101232.56;5059317;28;46097;-76
2021/09/16 02:52:12;;;;;;;;;13.67;13.67;;;;;16.96;80.15;101236.25;5059179;28;45510;-77
2021/09/16 02:54:38;;;;;;;;;17.00;17.00;;;;;16.95;80.72;101237.28;5059462;28;45469;-76
2021/09/16 02:57:03;;;;;;;;;18.67;16.67;;;;;17.01;80.87;101248.06;5058523;28;47089;-77
2021/09/16 02:59:29;;;;;;;;;13.67;13.67;;;;;17.01;80.77;101242.69;5059294;28;45334;-77
2021/09/16 03:01:54;;;;;;;;;18.33;17.67;;;;;17.06;80.80;101252.78;5057796;28;45370;-77
2021/09/16 03:04:19;;;;;;;;;17.67;15.00;;;;;17.04;80.19;101241.44;5059301;28;45256;-77
2021/09/16 03:06:45;;;;;;;;;15.00;15.00;;;;;17.07;80.62;101248.28;5059145;28;45561;-76
2021/09/16 03:09:10;;;;;;;;;16.33;16.33;;;;;17.10;80.45;101258.63;5057586;28;46919;-77
2021/09/16 03:11:35;;;;;;;;;14.00;14.00;;;;;17.08;80.84;101248.06;5058953;28;45330;-76
2021/09/16 03:14:01;;;;;;;;;22.33;21.00;;;;;17.13;80.43;101250.97;5059167;28;45354;-76
2021/09/16 03:16:26;;;;;;;;;22.33;20.67;;;;;17.15;80.21;101248.91;5058522;28;45292;-76
2021/09/16 03:18:51;;;;;;;;;18.67;18.67;;;;;17.12;79.90;101249.31;5060546;28;47111;-76
2021/09/16 03:21:17;;;;;;;;;19.33;19.33;;;;;17.17;79.86;101259.44;5062323;28;45323;-75
2021/09/16 03:23:42;;;;;;;;;20.67;20.33;;;;;17.16;79.73;101261.28;5062689;28;45701;-76
2021/09/16 03:26:08;;;;;;;;;17.67;17.67;;;;;17.19;79.82;101257.38;5062242;28;45529;-76
2021/09/16 03:28:37;;;;;;;;;19.00;18.33;;;;;17.23;80.21;101266.69;5062046;28;45256;-76
2021/09/16 03:31:03;;;;;;;;;21.67;20.67;;;;;17.22;79.77;101269.56;5064515;28;45247;-76
2021/09/16 03:33:28;;;;;;;;;21.33;19.33;;;;;17.24;80.28;101259.47;5062297;28;45317;-76
2021/09/16 03:35:53;;;;;;;;;17.33;17.33;;;;;17.23;79.82;101261.31;5062119;28;45528;-76
2021/09/16 03:38:19;;;;;;;;;19.00;18.00;;;;;17.24;79.88;101267.50;5062115;28;46576;-75
2021/09/16 03:40:44;;;;;;;;;20.00;20.00;;;;;17.24;79.82;101259.47;5061972;28;45346;-76
2021/09/16 03:43:09;;;;;;;;;18.33;18.00;;;;;17.27;79.79;101261.72;5061910;28;45439;-75
2021/09/16 03:45:35;;;;;;;;;21.67;19.33;;;;;17.28;79.35;101255.31;5061940;28;45251;-76
2021/09/16 03:48:00;;;;;;;;;19.00;18.33;;;;;17.31;79.58;101262.13;5062116;28;45930;-76
2021/09/16 03:50:26;;;;;;;;;19.00;19.00;;;;;17.32;79.19;101256.56;5062052;28;45346;-75
2021/09/16 03:52:51;;;;;;;;;20.00;20.00;;;;;17.29;79.78;101260.50;5062001;28;45445;-76
2021/09/16 03:55:16;;;;;;;;;15.67;15.67;;;;;17.29;79.71;101265.84;5061778;28;45272;-75
2021/09/16 03:57:42;;;;;;;;;20.00;19.00;;;;;17.29;79.63;101268.53;5061466;28;46446;-76
2021/09/16 04:00:09;;;;;;;;;18.33;18.33;;;;;17.27;79.72;101267.09;5061859;28;45366;-76
2021/09/16 04:02:36;;;;;;;;;16.33;16.00;;;;;17.23;79.39;101261.31;5061989;28;45248;-76
2021/09/16 04:05:01;;;;;;;;;19.33;17.33;;;;;17.25;79.87;101270.00;5061614;28;45465;-76
2021/09/16 04:07:27;;;;;;;;;18.33;18.33;;;;;17.26;79.81;101263.59;5061619;28;45158;-76
2021/09/16 04:09:52;;;;;;;;;19.00;18.33;;;;;17.24;79.84;101267.50;5061480;28;45285;-75
2021/09/16 04:12:18;;;;;;;;;18.33;18.33;;;;;17.23;79.25;101261.31;5061336;28;45269;-75
2021/09/16 04:14:43;;;;;;;;;17.00;17.00;;;;;17.21;79.28;101265.25;5061609;28;45499;-75
2021/09/16 04:17:08;;;;;;;;;19.67;19.33;;;;;17.18;79.64;101254.91;5061552;28;46344;-75
2021/09/16 04:19:34;;;;;;;;;20.67;19.00;;;;;17.18;79.22;101269.13;5060349;28;45748;-75
2021/09/16 04:21:59;;;;;;;;;22.33;21.33;;;;;17.10;79.11;101267.50;5061515;28;45287;-75
2021/09/16 04:24:24;;;;;;;;;22.33;20.67;;;;;17.09;79.55;101267.72;5061482;28;45559;-75
2021/09/16 04:26:49;;;;;;;;;20.33;16.67;;;;;17.07;79.35;101273.28;5061027;28;45988;-75
2021/09/16 04:29:15;;;;;;;;;18.33;18.33;;;;;17.03;79.26;101275.50;5060656;28;45338;-76
2021/09/16 04:31:41;;;;;;;;;22.00;20.00;;;;;16.98;79.05;101269.94;5061427;28;45288;-75
2021/09/16 04:34:07;;;;;;;;;16.67;16.67;;;;;16.94;79.25;101278.59;5061325;28;45453;-76
2021/09/16 04:36:32;;;;;;;;;20.67;20.00;;;;;16.90;79.37;101278.16;5059648;28;47170;-75
2021/09/16 04:38:57;;;;;;;;;24.67;22.33;;;;;16.87;79.14;101276.72;5059937;28;45300;-75
2021/09/16 04:41:23;;;;;;;;;24.33;23.00;;;;;16.84;79.12;101273.59;5061208;28;45395;-75
2021/09/16 04:43:49;;;;;;;;;21.67;20.00;;;;;16.86;79.56;101275.09;5060740;28;45413;-76
2021/09/16 04:46:14;;;;;;;;;26.67;24.00;;;;;16.84;79.11;101270.94;5060724;28;45324;-75
2021/09/16 04:48:40;;;;;;;;;31.67;27.33;;;;;16.84;79.46;101270.94;5061194;28;45352;-75
2021/09/16 04:51:05;;;;;;;;;25.67;25.67;;;;;16.79;78.94;101264.31;5061251;28;45270;-75
2021/09/16 04:53:30;;;;;;;;;26.00;26.00;;;;;16.78;79.11;101267.19;5060865;28;45294;-75
2021/09/16 04:55:56;;;;;;;;;23.33;22.33;;;;;16.75;78.92;101265.75;5060799;28;45301;-74
2021/09/16 04:58:21;;;;;;;;;21.33;20.33;;;;;16.76;79.10;101266.59;5060907;28;45212;-74
2021/09/16 05:00:47;;;;;;;;;23.00;22.00;;;;;16.77;79.73;101273.59;5061170;28;45201;-74
2021/09/16 05:03:12;;;;;;;;;20.00;20.00;;;;;16.76;79.74;101278.13;5058976;28;45936;-75
2021/09/16 05:05:38;;;;;;;;;23.67;22.67;;;;;16.75;79.66;101275.66;5060450;28;46216;-75
2021/09/16 05:08:03;;;;;;;;;21.67;21.00;;;;;16.74;79.63;101274.84;5060756;28;45370;-74
2021/09/16 05:10:29;;;;;;;;;18.00;18.00;;;;;16.72;79.07;101276.06;5060774;28;45297;-75
2021/09/16 05:12:54;;;;;;;;;25.33;22.33;;;;;16.73;78.87;101281.22;5060687;28;45314;-75
2021/09/16 05:15:19;;;;;;;;;28.00;26.33;;;;;16.68;79.59;101272.97;5060031;28;45458;-75
2021/09/16 05:17:45;;;;;;;;;24.00;22.33;;;;;16.68;78.97;101281.03;5060377;28;45346;-77
2021/09/16 05:20:11;;;;;;;;;25.33;23.00;;;;;16.66;79.29;101272.34;5060562;28;45355;-76
2021/09/16 05:22:36;;;;;;;;;21.67;20.67;;;;;16.64;78.93;101275.22;5060269;28;45406;-77
2021/09/16 05:25:02;;;;;;;;;19.67;18.33;;;;;16.60;79.20;101276.66;5060111;28;45864;-76
2021/09/16 05:27:27;;;;;;;;;20.33;19.67;;;;;16.58;78.99;101272.53;5060087;28;45345;-77
2021/09/16 05:29:53;;;;;;;;;19.67;19.67;;;;;16.56;79.04;101279.94;5061228;28;45278;-75
2021/09/16 05:32:18;;;;;;;;;18.00;18.00;;;;;16.51;79.08;101278.69;5059569;28;45224;-75
2021/09/16 05:34:44;;;;;;;;;20.00;20.00;;;;;16.51;79.15;101289.44;5059543;28;45311;-74
2021/09/16 05:37:09;;;;;;;;;18.67;18.00;;;;;16.47;78.72;101285.50;5060208;28;45362;-76
2021/09/16 05:39:37;;;;;;;;;23.00;22.00;;;;;16.48;79.31;101289.81;5059721;28;45150;-76
2021/09/16 05:42:03;;;;;;;;;21.00;19.00;;;;;16.48;79.51;101295.19;5059585;28;45204;-74
2021/09/16 05:44:28;;;;;;;;;19.67;19.67;;;;;16.46;78.78;101288.38;5059569;28;45452;-76
2021/09/16 05:46:54;;;;;;;;;15.00;15.00;;;;;16.47;79.04;101292.69;5060173;28;45290;-75
2021/09/16 05:49:19;;;;;;;;;18.00;18.00;;;;;16.45;78.84;101292.91;5059852;28;45311;-77
2021/09/16 05:51:44;;;;;;;;;18.00;18.00;;;;;16.41;78.83;101297.03;5059929;28;45356;-77
2021/09/16 05:54:10;;;;;;;;;20.00;20.00;;;;;16.41;78.99;101297.81;5059832;28;46163;-77
2021/09/16 05:56:35;;;;;;;;;17.67;17.67;;;;;16.36;78.83;101300.28;5059769;28;45271;-75
2021/09/16 05:59:01;;;;;;;;;17.67;17.00;;;;;16.39;78.86;101312.47;5060093;28;45310;-75
2021/09/16 06:01:26;;;;;;;;;17.33;17.33;;;;;16.38;79.13;101318.88;5059936;28;45866;-75
2021/09/16 06:03:52;;;;;;;;;20.00;19.00;;;;;16.34;78.91;101315.75;5059799;28;45393;-75
2021/09/16 06:06:17;;;;;;;;;23.00;20.67;;;;;16.36;79.29;101318.22;5059775;28;45436;-75
2021/09/16 06:08:43;;;;;;;;;29.67;25.33;;;;;16.37;78.91;101312.66;5058637;28;45237;-76
2021/09/16 06:11:09;;;;;;;;;28.67;27.00;;;;;16.38;79.15;101318.88;5059318;28;45447;-75
2021/09/16 06:13:34;;;;;;;;;31.67;28.00;;;;;16.42;79.41;101325.50;5059591;28;46265;-78
2021/09/16 06:16:00;;;;;;;;;26.33;25.33;;;;;16.43;79.29;101323.66;5059570;28;45298;-78
2021/09/16 06:18:25;;;;;;;;;32.00;30.67;;;;;16.40;79.64;101327.53;5059265;28;45246;-78
2021/09/16 06:20:51;;;;;;;;;27.33;26.67;;;;;16.48;79.65;101332.75;5059639;28;45409;-78
2021/09/16 06:23:18;;;;;;;;;30.67;28.33;;;;;16.51;79.92;101328.81;5059413;28;46204;-77
2021/09/16 06:25:43;;;;;;;;;49.33;39.00;;;;;16.52;79.28;101335.84;5059480;28;45334;-76
2021/09/16 06:28:09;;;;;;;;;49.33;40.33;;;;;16.57;79.69;101338.75;5059470;28;45319;-75
2021/09/16 06:30:34;;;;;;;;;44.00;35.00;;;;;16.62;79.57;101347.06;5068446;28;45969;-79
2021/09/16 06:33:00;;;;;;;;;35.67;32.00;;;;;16.65;79.44;101340.47;5079414;28;46412;-77
2021/09/16 06:35:28;;;;;;;;;31.00;27.00;;;;;16.73;79.63;101353.69;5078365;27;45295;-76
2021/09/16 06:37:57;;;;;;;;;31.00;29.00;;;;;16.71;79.40;101339.66;5056113;28;45626;-75
2021/09/16 06:40:22;;;;;;;;;31.33;28.00;;;;;16.71;79.11;101339.66;5055835;28;45308;-75
2021/09/16 06:42:48;;;;;;;;;19.67;17.67;;;;;16.82;78.94;101356.22;5056581;28;46448;-77
2021/09/16 06:45:13;;;;;;;;;19.33;19.00;;;;;16.88;79.05;101366.97;5057146;28;45494;-76
2021/09/16 06:47:39;;;;;;;;;32.67;29.00;;;;;16.88;79.35;101366.97;5058959;28;45335;-77
2021/09/16 06:50:06;;;;;;;;;36.33;29.67;;;;;16.90;79.07;101364.06;5058210;28;45295;-80
2021/09/16 06:52:31;;;;;;;;;21.00;20.33;;;;;16.86;78.59;101357.47;5061209;28;46534;-79
2021/09/16 06:54:58;;;;;;;;;21.00;19.33;;;;;16.82;78.41;101357.03;5062671;28;45282;-76
2021/09/16 06:57:23;;;;;;;;;21.00;21.00;;;;;16.83;78.40;101366.75;5063013;28;45543;-76
2021/09/16 06:59:49;;;;;;;;;18.00;17.33;;;;;16.81;78.15;101360.75;5062728;28;45227;-75
2021/09/16 07:02:14;;;;;;;;;20.33;19.33;;;;;16.83;78.33;101363.22;5062760;28;45270;-77
2021/09/16 07:04:39;;;;;;;;;19.33;17.00;;;;;16.83;78.02;101357.84;5061448;28;45370;-75
2021/09/16 07:07:08;;;;;;;;;18.00;18.00;;;;;16.82;78.41;101358.91;5061220;28;45329;-76
2021/09/16 07:09:34;;;;;;;;;27.33;27.00;;;;;16.82;78.16;101361.59;5062614;28;45418;-76
2021/09/16 07:12:00;;;;;;;;;42.00;35.67;;;;;16.78;78.88;101356.59;5062207;28;45550;-79
2021/09/16 07:14:30;;;;;;;;;42.67;36.00;;;;;16.85;78.99;101362.00;5062416;28;45328;-76
2021/09/16 07:16:56;;;;;;;;;27.00;23.33;;;;;16.85;78.24;101364.66;5062269;28;45147;-80
2021/09/16 07:19:21;;;;;;;;;30.33;29.00;;;;;16.86;78.27;101362.81;5062311;28;45201;-79
2021/09/16 07:21:47;;;;;;;;;50.33;41.33;;;;;16.87;77.96;101359.94;5060566;28;46381;-77
2021/09/16 07:25:00;;;;;;;;;36.33;32.00;;;;;16.76;78.41;101331.00;5062111;28;45350;-81
2021/09/16 07:27:47;;;;;;;;;24.00;21.67;;;;;16.84;78.33;101346.09;5053696;28;45430;-78
2021/09/16 07:30:32;;;;;;;;;10.33;10.33;;;;;16.83;77.29;101353.31;5068046;28;45268;-76
2021/09/16 07:33:41;;;;;;;;;;;;;;;;;;;;;
2021/09/16 07:36:06;;;;;;;;;40.00;33.33;;;;;16.83;76.68;101349.81;5081353;28;72778;-77
2021/09/16 07:39:04;;;;;;;;;35.33;31.00;;;;;16.90;76.01;101358.69;5081339;28;45373;-77
2021/09/16 07:41:49;;;;;;;;;49.67;38.67;;;;;16.91;76.54;101361.19;5009732;28;45550;-77
2021/09/16 07:44:25;;;;;;;;;63.25;49.00;;;;;16.91;76.27;101363.03;5080349;28;46353;-80
2021/09/16 07:47:10;;;;;;;;;76.00;68.25;;;;;16.99;76.88;101370.94;5080498;28;45299;-82
2021/09/16 07:49:47;;;;;;;;;28.67;24.33;;;;;16.87;76.61;101349.19;5079015;28;45360;-80
2021/09/16 07:52:13;;;;;;;;;17.00;16.00;;;;;17.00;76.27;101367.19;5072474;28;46385;-80
2021/09/16 07:54:43;;;;;;;;;27.67;25.67;;;;;17.05;76.55;101377.34;5061397;28;45494;-78
2021/09/16 08:00:14;;;;;;;;;46.67;37.00;;;;;17.03;75.86;101374.03;5058634;27;45512;-78
2021/09/16 08:02:52;;;;;;;;;9.33;9.33;;;;;17.09;75.68;101383.97;5061307;28;45338;-77
2021/09/16 08:05:27;;;;;;;;;22.67;21.33;;;;;17.11;75.54;101387.31;5060683;28;46246;-78
2021/09/16 08:07:58;;;;;;;;;53.67;43.67;;;;;17.08;75.20;101376.97;5061549;28;45235;-78
2021/09/16 08:10:23;;;;;;;;;23.67;22.33;;;;;17.12;74.87;101372.03;5060172;28;45288;-77
2021/09/16 08:12:50;;;;;;;;;6.67;6.33;;;;;17.22;74.94;101391.28;5061244;28;45512;-78
2021/09/16 08:15:29;;;;;;;;;9.33;9.33;;;;;17.30;74.72;101398.28;5061529;28;47913;-79
2021/09/16 08:17:59;;;;;;;;;19.67;17.33;;;;;17.20;75.07;101368.31;5060154;28;45796;-79
2021/09/16 08:20:28;;;;;;;;;27.33;27.33;;;;;17.28;74.63;101377.03;5059485;28;45337;-78
2021/09/16 08:23:01;;;;;;;;;32.67;30.00;;;;;17.28;74.84;101365.44;5059725;28;45438;-79
2021/09/16 08:25:27;;;;;;;;;13.50;12.00;;;;;17.32;74.45;101369.38;5060874;28;46062;-82
2021/09/16 08:28:01;;;;;;;;;30.00;25.33;;;;;17.42;74.55;101377.88;5061129;28;45235;-80
2021/09/16 08:30:27;;;;;;;;;18.67;18.00;;;;;17.42;74.78;101372.50;5070093;28;45438;-86
2021/09/16 08:32:56;;;;;;;;;23.00;19.33;;;;;17.56;75.07;101388.63;5082862;27;45867;-82
2021/09/16 08:35:24;;;;;;;;;34.33;30.33;;;;;17.48;74.26;101373.53;5079709;28;46749;-82
2021/09/16 08:37:50;;;;;;;;;28.33;25.67;;;;;17.62;73.29;101393.19;5069133;28;45478;-81
2021/09/16 08:40:17;;;;;;;;;19.00;15.33;;;;;17.62;74.06;101386.97;5059405;28;45468;-85
2021/09/16 08:42:44;;;;;;;;;5.33;5.33;;;;;17.67;72.86;101396.09;5059141;28;45458;-82
2021/09/16 08:45:25;;;;;;;;;10.33;10.33;;;;;17.70;74.38;101389.47;5058533;28;46424;-83
2021/09/16 08:47:55;;;;;;;;;10.33;8.00;;;;;17.67;73.81;101384.50;5059578;28;45342;-85
2021/09/16 08:50:26;;;;;;;;;20.67;19.67;;;;;17.71;73.68;101377.69;5059679;28;45251;-82
2021/09/16 08:52:55;;;;;;;;;15.67;14.67;;;;;17.75;73.82;101386.97;5059197;28;46579;-81
2021/09/16 08:55:30;;;;;;;;;7.33;7.33;;;;;17.71;72.80;101375.00;5058684;28;47727;-81
2021/09/16 08:58:31;;;;;;;;;8.67;8.67;;;;;17.84;73.10;101381.41;5059395;28;45473;-80
2021/09/16 09:00:57;;;;;;;;;12.00;9.67;;;;;17.81;73.09;101369.22;5059296;28;45363;-81
2021/09/16 09:03:23;;;;;;;;;10.00;10.00;;;;;17.96;72.29;101393.16;5062221;28;45216;-81
2021/09/16 09:05:49;;;;;;;;;4.33;3.33;;;;;17.92;71.67;101383.88;5060496;28;46147;-79
2021/09/16 09:08:21;;;;;;;;;35.67;30.00;;;;;17.98;73.33;101396.50;5060762;28;45358;-78
2021/09/16 09:10:49;;;;;;;;;28.67;28.00;;;;;18.03;72.96;101396.72;5059462;28;45236;-80
2021/09/16 09:13:35;;;;;;;;;22.33;20.00;;;;;18.09;71.78;101402.28;5059029;28;45660;-81
2021/09/16 09:16:07;;;;;;;;;4.67;4.67;;;;;18.14;71.56;101403.31;5059127;28;46988;-81
2021/09/16 09:18:44;;;;;;;;;6.00;6.00;;;;;18.19;71.85;101413.47;5059292;28;45517;-80
2021/09/16 09:21:12;;;;;;;;;7.33;7.33;;;;;18.25;71.08;101417.19;5058979;28;45293;-78
2021/09/16 09:23:46;;;;;;;;;5.33;5.33;;;;;18.31;70.81;101420.91;5060535;28;45310;-78
2021/09/16 09:26:22;;;;;;;;;6.33;6.00;;;;;18.36;70.50;101415.72;5058932;28;45820;-78
2021/09/16 09:28:49;;;;;;;;;5.00;5.00;;;;;18.43;70.65;101419.22;5060509;28;45365;-78
2021/09/16 09:31:18;;;;;;;;;43.67;37.33;;;;;18.52;71.11;101415.28;5076620;28;45169;-79
2021/09/16 09:33:44;;;;;;;;;6.67;6.67;;;;;18.59;69.97;101417.13;5080596;28;45398;-79
2021/09/16 09:36:13;;;;;;;;;5.00;4.33;;;;;18.64;70.42;101420.81;5080400;28;45981;-79
2021/09/16 09:38:55;;;;;;;;;19.00;17.67;;;;;18.71;70.55;101414.59;5080570;28;45299;-79
2021/09/16 09:41:26;;;;;;;;;4.67;4.67;;;;;18.79;69.52;101417.88;5079115;28;45401;-78
2021/09/16 09:44:02;;;;;;;;;8.00;8.00;;;;;18.88;69.68;101413.06;5080534;28;45150;-79
2021/09/16 09:46:27;;;;;;;;;12.33;12.00;;;;;19.01;69.72;101420.25;5080916;28;46233;-78
2021/09/16 09:49:02;;;;;;;;;5.00;4.67;;;;;19.09;66.11;101410.34;5080591;28;45247;-78
2021/09/16 09:51:47;;;;;;;;;5.33;5.33;;;;;19.24;67.41;101421.63;5079426;28;45191;-77
2021/09/16 09:54:22;;;;;;;;;6.33;6.33;;;;;19.38;67.05;101424.25;5079130;28;46202;-78
2021/09/16 09:57:10;;;;;;;;;2.00;2.00;;;;;19.52;67.70;101423.09;5080233;27;46312;-76
2021/09/16 09:59:55;;;;;;;;;3.00;3.00;;;;;19.66;66.55;101429.25;5080491;28;45315;-78
2021/09/16 10:02:24;;;;;;;;;3.33;3.33;;;;;19.72;64.51;101411.34;5080889;28;45247;-78
2021/09/16 10:04:50;;;;;;;;;3.00;2.00;;;;;19.89;65.76;101417.03;5078927;28;45409;-78
2021/09/16 10:07:28;;;;;;;;;2.67;2.00;;;;;20.03;64.88;101420.47;5078685;28;47479;-80
2021/09/16 10:09:55;;;;;;;;;2.67;2.67;;;;;20.12;62.62;101412.94;5080137;28;45314;-79
2021/09/16 10:12:21;;;;;;;;;3.67;2.67;;;;;20.29;63.09;101418.56;5080234;28;45358;-80
2021/09/16 10:14:46;;;;;;;;;2.00;1.00;;;;;20.37;63.70;101411.22;5079905;28;45416;-82
2021/09/16 10:17:12;;;;;;;;;9.67;7.00;;;;;20.50;63.83;101418.38;5079973;27;45392;-80
2021/09/16 10:19:41;;;;;;;;;3.00;3.00;;;;;20.61;64.60;101414.91;5080211;28;45376;-81
2021/09/16 10:22:08;;;;;;;;;4.00;4.00;;;;;20.66;63.71;101414.22;5078719;28;45268;-79
2021/09/16 10:24:34;;;;;;;;;1.67;1.67;;;;;20.72;62.22;101412.50;5080574;28;45325;-77
2021/09/16 10:27:00;;;;;;;;;3.00;3.00;;;;;20.83;61.95;101410.91;5079469;28;45340;-76
2021/09/16 10:29:28;;;;;;;;;3.33;3.33;;;;;20.92;62.25;101415.00;5078612;28;45289;-76
2021/09/16 10:31:59;;;;;;;;;5.33;5.00;;;;;21.03;62.41;101418.78;5059814;28;45279;-78
2021/09/16 10:34:55;;;;;;;;;7.33;6.67;;;;;21.17;63.29;101409.47;5058135;28;46205;-78
2021/09/16 10:37:22;;;;;;;;;7.67;6.00;;;;;21.25;62.24;101404.78;5057813;28;45940;-78
2021/09/16 10:39:48;;;;;;;;;6.33;6.33;;;;;21.30;62.33;101403.03;5059345;28;45381;-78
2021/09/16 10:42:15;;;;;;;;;4.00;4.00;;;;;21.31;61.40;101399.25;5059742;28;45366;-81
2021/09/16 10:44:42;;;;;;;;;2.67;2.67;;;;;21.37;60.92;101397.50;5057855;28;47153;-82
2021/09/16 10:47:13;;;;;;;;;6.67;5.33;;;;;21.40;60.84;101399.75;5059386;28;45391;-83
2021/09/16 10:49:38;;;;;;;;;3.33;3.33;;;;;21.41;59.55;101395.19;5059568;28;45446;-78
2021/09/16 10:52:10;;;;;;;;;2.00;2.00;;;;;21.39;59.58;101392.72;5059392;28;45242;-78
2021/09/16 10:54:42;;;;;;;;;3.67;2.00;;;;;21.40;60.39;101388.13;5056318;28;45318;-78
2021/09/16 10:57:14;;;;;;;;;1.67;1.67;;;;;21.43;60.90;101391.19;5050779;28;45319;-79
2021/09/16 10:59:51;;;;;;;;;6.33;6.33;;;;;21.48;61.33;101390.50;5055276;28;45200;-75
2021/09/16 11:02:24;;;;;;;;;49.00;39.00;;;;;21.52;59.70;101394.38;5054373;28;45311;-78
2021/09/16 11:04:58;;;;;;;;;5.00;5.00;;;;;21.57;59.49;101394.50;5055193;28;46052;-77
2021/09/16 11:07:33;;;;;;;;;2.75;2.75;;;;;21.60;58.11;101389.69;5052930;28;46644;-79
2021/09/16 11:10:17;;;;;;;;;2.00;2.00;;;;;21.61;60.50;101400.25;5052598;28;45268;-77
2021/09/16 11:12:48;;;;;;;;;3.75;3.75;;;;;21.60;59.87;101386.97;5054871;28;45350;-76
2021/09/16 11:15:16;;;;;;;;;2.00;2.00;;;;;21.56;60.28;101403.69;5051879;28;45685;-76
2021/09/16 11:17:43;;;;;;;;;48.67;40.00;;;;;21.51;59.49;101397.31;5053883;28;46209;-79
2021/09/16 11:20:12;;;;;;;;;4.00;4.00;;;;;21.50;59.70;101393.81;5061980;28;46465;-76
2021/09/16 11:22:38;;;;;;;;;12.67;11.67;;;;;21.56;60.08;101401.00;5057900;28;45429;-76